Terminal Aerodrome Forecast
Issued by NWS North Platte, NE

Home | Current Version | Previous Version | Text Only | Print | Product List | Glossary Off
Versions: 1 2 3 4 5 6 7 8 9 10 11 12 13 14 15 16 17 18 19 20 21 22

000
FTUS43 KLBF 251631 AAB
TAFVTN
TAF AMD
KVTN 251631Z 2517/2612 02012KT 5SM BR VCSH OVC007
     FM251800 01012G18KT P6SM VCSH OVC008
     FM260000 36016G23KT P6SM VCSH OVC008
     FM260300 35015G23KT P6SM OVC008=

USA.gov is the U.S. government's official web portal to all federal, state and local government web resources and services.